aviador You're here:

KVAD Decoded Metar

VALDOSTA in GA, USA
Report Time2018-06-24 19:56:00
UTC Time2018-06-24 20:21:51
Flight Rules vfr VFR
Wind340° at 06 kt
W.Decomp.*RWY 36: 5.7 kt HW 1.8 kt LCW
W.Rank340° ranks 36
Current wind is below 340° avg. (6.3)
Visibility9999 m
Phenomena:N/A
Clouds:Few 049 Hf
Expected CloudBase > 4,400 ft AGL from Temp-Dew spread
CeilingNone
Temp33°C (ISA +18)
Dew Point22°C (52% RH)
Heat Index36.9°C
QNH1016 hPa
Density Alt2,585 ft
Elevation233 ft
Report Wrong Elevation
Raw Report
KVAD 241956Z AUTO 34006KT 10SM FEW049 33/22 A3000 RMK AO2 SLP159
T03330217 $=

Extra information for KVAD:More info

Metar Taf Metar & Taf Last 4 Metars F.Rules Stats Wind Profile Meteogram Temp Stats Airport Information Weather charts Add Link Nearby VenuesMetar ALERT Operation Metar Decoded Social comments

AIRNAV info for KVAD